PRIVATE WETTERSTATION BILLIGHEIM-ALLFELD                       ZURCK
Wetterdaten: Freitag, 27.01.2017
Datum Zeit Temp. A. Temp. A. min Temp. A. max Feuchte A. Luftdruck Regen Wind Richtung Richtung Sonnenschein ET Solar Taupunkt Windchill Windben Empfang
27.01.2017 00:00 -4,1 C -4,1 C -3,9 C 79 % 1022,8 hPa 0,0 l/m 0,0 km/h (0 Bft) O 90 0 min 0,000 mm 0 W/m -7,2 C -4,1 C 3,2 km/h (1 Bft) 100 %
27.01.2017 00:10 -4,2 C -4,2 C -4,1 C 79 % 1022,6 hPa 0,0 l/m 0,0 km/h (0 Bft) O 90 0 min 0,000 mm 0 W/m -7,3 C -4,2 C 4,8 km/h (1 Bft) 100 %
27.01.2017 00:20 -4,3 C -4,3 C -4,2 C 80 % 1022,5 hPa 0,0 l/m 1,6 km/h (1 Bft) O 90 0 min 0,000 mm 0 W/m -7,2 C -4,3 C 6,4 km/h (2 Bft) 100 %
27.01.2017 00:30 -4,3 C -4,3 C -4,3 C 81 % 1022,2 hPa 0,0 l/m 1,6 km/h (1 Bft) O 90 0 min 0,000 mm 0 W/m -7,1 C -4,3 C 9,7 km/h (2 Bft) 100 %
27.01.2017 00:40 -4,3 C -4,3 C -4,3 C 80 % 1022,3 hPa 0,0 l/m 0,0 km/h (0 Bft) O-NO 67 0 min 0,000 mm 0 W/m -7,2 C -4,3 C 3,2 km/h (1 Bft) 99 %
27.01.2017 00:50 -4,4 C -4,4 C -4,3 C 80 % 1022,4 hPa 0,0 l/m 0,0 km/h (0 Bft) O-NO 67 0 min 0,000 mm 0 W/m -7,3 C -4,4 C 8,0 km/h (2 Bft) 97 %
27.01.2017 01:00 -4,8 C -4,8 C -4,4 C 80 % 1022,4 hPa 0,0 l/m 0,0 km/h (0 Bft) O-SO 112 0 min 0,000 mm 0 W/m -7,7 C -4,8 C 4,8 km/h (1 Bft) 98 %
27.01.2017 01:10 -5,3 C -5,3 C -4,8 C 80 % 1022,3 hPa 0,0 l/m 0,0 km/h (0 Bft) O 90 0 min 0,000 mm 0 W/m -8,2 C -5,3 C 3,2 km/h (1 Bft) 97 %
27.01.2017 01:20 -5,1 C -5,3 C -5,1 C 83 % 1022,0 hPa 0,0 l/m 1,6 km/h (1 Bft) O 90 0 min 0,000 mm 0 W/m -7,5 C -5,1 C 8,0 km/h (2 Bft) 98 %
27.01.2017 01:30 -4,9 C -5,1 C -4,9 C 82 % 1022,3 hPa 0,0 l/m 0,0 km/h (0 Bft) O-NO 67 0 min 0,000 mm 0 W/m -7,5 C -4,9 C 6,4 km/h (2 Bft) 98 %
27.01.2017 01:40 -5,3 C -5,3 C -4,9 C 80 % 1022,2 hPa 0,0 l/m 0,0 km/h (0 Bft) N-NO 22 0 min 0,000 mm 0 W/m -8,2 C -5,3 C 3,2 km/h (1 Bft) 97 %
27.01.2017 01:50 -5,7 C -5,7 C -5,3 C 83 % 1022,1 hPa 0,0 l/m 0,0 km/h (0 Bft) N-NO 22 0 min 0,000 mm 0 W/m -8,1 C -5,7 C 3,2 km/h (1 Bft) 98 %
27.01.2017 02:00 -5,1 C -5,7 C -5,1 C 85 % 1022,1 hPa 0,0 l/m 1,6 km/h (1 Bft) O 90 0 min 0,000 mm 0 W/m -7,2 C -5,1 C 6,4 km/h (2 Bft) 97 %
27.01.2017 02:10 -4,8 C -5,1 C -4,8 C 82 % 1022,0 hPa 0,0 l/m 0,0 km/h (0 Bft) O-SO 112 0 min 0,000 mm 0 W/m -7,4 C -4,8 C 6,4 km/h (2 Bft) 98 %
27.01.2017 02:20 -5,6 C -5,6 C -4,8 C 80 % 1022,0 hPa 0,0 l/m 1,6 km/h (1 Bft) O-NO 67 0 min 0,000 mm 0 W/m -8,5 C -5,6 C 8,0 km/h (2 Bft) 97 %
27.01.2017 02:30 -6,3 C -6,3 C -5,6 C 82 % 1022,1 hPa 0,0 l/m 0,0 km/h (0 Bft) N-NW 337 0 min 0,000 mm 0 W/m -8,9 C -6,3 C 4,8 km/h (1 Bft) 98 %
27.01.2017 02:40 -6,8 C -6,8 C -6,3 C 83 % 1022,2 hPa 0,0 l/m 1,6 km/h (1 Bft) N 360 0 min 0,000 mm 0 W/m -9,2 C -6,8 C 4,8 km/h (1 Bft) 98 %
27.01.2017 02:50 -7,0 C -7,0 C -6,8 C 85 % 1022,4 hPa 0,0 l/m 1,6 km/h (1 Bft) N 360 0 min 0,000 mm 0 W/m -9,1 C -7,0 C 4,8 km/h (1 Bft) 98 %
27.01.2017 03:00 -7,1 C -7,1 C -6,9 C 85 % 1022,2 hPa 0,0 l/m 0,0 km/h (0 Bft) N-NW 337 0 min 0,000 mm 0 W/m -9,2 C -7,1 C 4,8 km/h (1 Bft) 97 %
27.01.2017 03:10 -7,1 C -7,2 C -7,1 C 87 % 1022,1 hPa 0,0 l/m 0,0 km/h (0 Bft) N-NO 22 0 min 0,000 mm 0 W/m -8,9 C -7,1 C 3,2 km/h (1 Bft) 97 %
27.01.2017 03:20 -6,5 C -7,1 C -6,5 C 89 % 1021,8 hPa 0,0 l/m 1,6 km/h (1 Bft) NO 45 0 min 0,000 mm 0 W/m -8,0 C -6,5 C 8,0 km/h (2 Bft) 98 %
27.01.2017 03:30 -5,9 C -6,5 C -5,9 C 87 % 1021,9 hPa 0,0 l/m 1,6 km/h (1 Bft) O 90 0 min 0,000 mm 0 W/m -7,7 C -5,9 C 9,7 km/h (2 Bft) 97 %
27.01.2017 03:40 -6,3 C -6,3 C -5,9 C 83 % 1022,1 hPa 0,0 l/m 1,6 km/h (1 Bft) N-NW 337 0 min 0,000 mm 0 W/m -8,7 C -6,3 C 6,4 km/h (2 Bft) 98 %
27.01.2017 03:50 -6,8 C -6,8 C -6,3 C 84 % 1022,0 hPa 0,0 l/m 1,6 km/h (1 Bft) N-NW 337 0 min 0,000 mm 0 W/m -9,0 C -6,8 C 4,8 km/h (1 Bft) 98 %
27.01.2017 04:00 -7,1 C -7,1 C -6,8 C 86 % 1021,9 hPa 0,0 l/m 0,0 km/h (0 Bft) N 0 0 min 0,000 mm 0 W/m -9,0 C -7,1 C 0,0 km/h (0 Bft) 98 %
27.01.2017 04:10 -7,2 C -7,2 C -7,1 C 86 % 1022,0 hPa 0,0 l/m 0,0 km/h (0 Bft) N 0 0 min 0,000 mm 0 W/m -9,1 C -7,2 C 0,0 km/h (0 Bft) 89 %
27.01.2017 04:20 -7,5 C -7,5 C -7,2 C 86 % 1022,0 hPa 0,0 l/m 0,0 km/h (0 Bft) N 0 0 min 0,000 mm 0 W/m -9,4 C -7,5 C 0,0 km/h (0 Bft) 98 %
27.01.2017 04:30 -7,7 C -7,7 C -7,5 C 87 % 1022,1 hPa 0,0 l/m 0,0 km/h (0 Bft) N 0 0 min 0,000 mm 0 W/m -9,5 C -7,7 C 0,0 km/h (0 Bft) 98 %
27.01.2017 04:40 -7,9 C -7,9 C -7,7 C 87 % 1022,0 hPa 0,0 l/m 0,0 km/h (0 Bft) N-NW 337 0 min 0,000 mm 0 W/m -9,7 C -7,9 C 3,2 km/h (1 Bft) 98 %
27.01.2017 04:50 -8,1 C -8,1 C -7,9 C 88 % 1022,0 hPa 0,0 l/m 0,0 km/h (0 Bft) N 0 0 min 0,000 mm 0 W/m -9,7 C -8,1 C 0,0 km/h (0 Bft) 98 %
27.01.2017 05:00 -8,2 C -8,2 C -8,1 C 88 % 1022,0 hPa 0,0 l/m 1,6 km/h (1 Bft) N-NW 337 0 min 0,000 mm 0 W/m -9,8 C -8,2 C 4,8 km/h (1 Bft) 98 %
27.01.2017 05:10 -8,4 C -8,4 C -8,2 C 89 % 1022,1 hPa 0,0 l/m 0,0 km/h (0 Bft) N-NW 337 0 min 0,000 mm 0 W/m -9,9 C -8,4 C 3,2 km/h (1 Bft) 97 %
27.01.2017 05:20 -8,5 C -8,5 C -8,4 C 88 % 1022,0 hPa 0,0 l/m 0,0 km/h (0 Bft) N 0 0 min 0,000 mm 0 W/m -10,1 C -8,5 C 0,0 km/h (0 Bft) 98 %
27.01.2017 05:30 -8,6 C -8,6 C -8,5 C 89 % 1021,9 hPa 0,0 l/m 0,0 km/h (0 Bft) N-NW 337 0 min 0,000 mm 0 W/m -10,1 C -8,6 C 3,2 km/h (1 Bft) 98 %
27.01.2017 05:40 -8,7 C -8,7 C -8,6 C 89 % 1021,9 hPa 0,0 l/m 0,0 km/h (0 Bft) N-NW 337 0 min 0,000 mm 0 W/m -10,2 C -8,7 C 4,8 km/h (1 Bft) 97 %
27.01.2017 05:50 -8,7 C -8,7 C -8,7 C 90 % 1022,1 hPa 0,0 l/m 0,0 km/h (0 Bft) N-NW 337 0 min 0,000 mm 0 W/m -10,0 C -8,7 C 3,2 km/h (1 Bft) 98 %
27.01.2017 06:00 -8,6 C -8,7 C -8,6 C 90 % 1022,0 hPa 0,0 l/m 1,6 km/h (1 Bft) N-NW 337 0 min 0,000 mm 0 W/m -9,9 C -8,6 C 4,8 km/h (1 Bft) 100 %
27.01.2017 06:10 -8,6 C -8,6 C -8,5 C 90 % 1021,9 hPa 0,0 l/m 0,0 km/h (0 Bft) N-NW 337 0 min 0,000 mm 0 W/m -9,9 C -8,6 C 4,8 km/h (1 Bft) 100 %
27.01.2017 06:20 -8,5 C -8,6 C -8,5 C 90 % 1022,0 hPa 0,0 l/m 0,0 km/h (0 Bft) N 0 0 min 0,000 mm 0 W/m -9,8 C -8,5 C 0,0 km/h (0 Bft) 100 %
27.01.2017 06:30 -8,3 C -8,5 C -8,3 C 90 % 1022,1 hPa 0,0 l/m 1,6 km/h (1 Bft) N-NW 337 0 min 0,000 mm 0 W/m -9,6 C -8,3 C 4,8 km/h (1 Bft) 100 %
27.01.2017 06:40 -8,1 C -8,3 C -8,1 C 90 % 1022,0 hPa 0,0 l/m 0,0 km/h (0 Bft) N-NW 337 0 min 0,000 mm 0 W/m -9,4 C -8,1 C 3,2 km/h (1 Bft) 92 %
27.01.2017 06:50 -8,1 C -8,1 C -8,1 C 90 % 1022,0 hPa 0,0 l/m 0,0 km/h (0 Bft) N 0 0 min 0,000 mm 0 W/m -9,4 C -8,1 C 0,0 km/h (0 Bft) 100 %
27.01.2017 07:00 -8,1 C -8,1 C -8,0 C 89 % 1022,0 hPa 0,0 l/m 0,0 km/h (0 Bft) N 0 0 min 0,000 mm 0 W/m -9,6 C -8,1 C 0,0 km/h (0 Bft) 100 %
27.01.2017 07:10 -8,2 C -8,2 C -8,1 C 89 % 1022,2 hPa 0,0 l/m 0,0 km/h (0 Bft) N-NW 337 0 min 0,000 mm 0 W/m -9,7 C -8,2 C 3,2 km/h (1 Bft) 100 %
27.01.2017 07:20 -8,4 C -8,4 C -8,2 C 89 % 1022,0 hPa 0,0 l/m 0,0 km/h (0 Bft) N 0 0 min 0,000 mm 0 W/m -9,9 C -8,4 C 0,0 km/h (0 Bft) 100 %
27.01.2017 07:30 -8,6 C -8,6 C -8,4 C 89 % 1022,0 hPa 0,0 l/m 0,0 km/h (0 Bft) N-NW 337 0 min 0,000 mm 0 W/m -10,1 C -8,6 C 3,2 km/h (1 Bft) 100 %
27.01.2017 07:40 -8,7 C -8,7 C -8,6 C 89 % 1022,0 hPa 0,0 l/m 0,0 km/h (0 Bft) N-NW 337 0 min 0,000 mm 0 W/m -10,2 C -8,7 C 1,6 km/h (1 Bft) 100 %
27.01.2017 07:50 -8,8 C -8,8 C -8,7 C 89 % 1022,0 hPa 0,0 l/m 0,0 km/h (0 Bft) N 0 0 min 0,000 mm 0 W/m -10,3 C -8,8 C 0,0 km/h (0 Bft) 100 %
27.01.2017 08:00 -8,9 C -8,9 C -8,8 C 90 % 1022,2 hPa 0,0 l/m 1,6 km/h (1 Bft) N-NW 337 0 min 0,000 mm 7 W/m -10,2 C -8,9 C 4,8 km/h (1 Bft) 100 %
27.01.2017 08:10 -8,8 C -8,9 C -8,8 C 90 % 1022,5 hPa 0,0 l/m 1,6 km/h (1 Bft) N-NW 337 0 min 0,000 mm 16 W/m -10,1 C -8,8 C 3,2 km/h (1 Bft) 100 %
27.01.2017 08:20 -8,7 C -8,8 C -8,7 C 91 % 1022,6 hPa 0,0 l/m 0,0 km/h (0 Bft) N 0 0 min 0,000 mm 26 W/m -9,9 C -8,7 C 0,0 km/h (0 Bft) 100 %
27.01.2017 08:30 -8,5 C -8,7 C -8,5 C 91 % 1022,5 hPa 0,0 l/m 0,0 km/h (0 Bft) N 0 0 min 0,000 mm 37 W/m -9,7 C -8,5 C 0,0 km/h (0 Bft) 100 %
27.01.2017 08:40 -8,3 C -8,5 C -8,3 C 91 % 1022,7 hPa 0,0 l/m 1,6 km/h (1 Bft) N-NW 337 0 min 0,000 mm 47 W/m -9,5 C -8,3 C 4,8 km/h (1 Bft) 100 %
27.01.2017 08:50 -8,1 C -8,3 C -8,1 C 91 % 1022,8 hPa 0,0 l/m 0,0 km/h (0 Bft) N-NW 337 0 min 0,000 mm 77 W/m -9,3 C -8,1 C 6,4 km/h (2 Bft) 100 %
27.01.2017 09:00 -7,8 C -8,1 C -7,8 C 91 % 1022,8 hPa 0,0 l/m 0,0 km/h (0 Bft) N 0 0 min 0,000 mm 81 W/m -9,0 C -7,8 C 0,0 km/h (0 Bft) 100 %
27.01.2017 09:10 -7,3 C -7,8 C -7,3 C 91 % 1022,7 hPa 0,0 l/m 0,0 km/h (0 Bft) N 0 0 min 0,000 mm 127 W/m -8,5 C -7,3 C 0,0 km/h (0 Bft) 100 %
27.01.2017 09:20 -6,5 C -7,3 C -6,5 C 91 % 1022,7 hPa 0,0 l/m 0,0 km/h (0 Bft) N-NW 337 0 min 0,000 mm 134 W/m -7,7 C -6,5 C 1,6 km/h (1 Bft) 100 %
27.01.2017 09:30 -5,6 C -6,5 C -5,6 C 90 % 1022,7 hPa 0,0 l/m 0,0 km/h (0 Bft) N 0 10 min 0,000 mm 160 W/m -7,0 C -5,6 C 0,0 km/h (0 Bft) 100 %
27.01.2017 09:40 -4,7 C -5,6 C -4,7 C 87 % 1022,8 hPa 0,0 l/m 0,0 km/h (0 Bft) N-NW 337 10 min 0,000 mm 183 W/m -6,5 C -4,7 C 3,2 km/h (1 Bft) 100 %
27.01.2017 09:50 -3,9 C -4,7 C -3,9 C 85 % 1023,1 hPa 0,0 l/m 0,0 km/h (0 Bft) N 0 10 min 0,000 mm 197 W/m -6,0 C -3,9 C 0,0 km/h (0 Bft) 100 %
27.01.2017 10:00 -3,4 C -3,9 C -3,4 C 81 % 1022,9 hPa 0,0 l/m 0,0 km/h (0 Bft) N 0 10 min 0,051 mm 186 W/m -6,2 C -3,4 C 0,0 km/h (0 Bft) 100 %
27.01.2017 10:10 -3,5 C -3,5 C -3,4 C 80 % 1022,9 hPa 0,0 l/m 1,6 km/h (1 Bft) N-NW 337 10 min 0,000 mm 167 W/m -6,4 C -3,5 C 6,4 km/h (2 Bft) 100 %
27.01.2017 10:20 -3,5 C -3,6 C -3,5 C 81 % 1023,0 hPa 0,0 l/m 1,6 km/h (1 Bft) NO 45 10 min 0,000 mm 207 W/m -6,3 C -3,5 C 8,0 km/h (2 Bft) 99 %
27.01.2017 10:30 -3,2 C -3,5 C -3,2 C 80 % 1022,9 hPa 0,0 l/m 1,6 km/h (1 Bft) NO 45 10 min 0,000 mm 262 W/m -6,1 C -3,2 C 6,4 km/h (2 Bft) 90 %
27.01.2017 10:40 -2,6 C -3,2 C -2,6 C 79 % 1023,0 hPa 0,0 l/m 0,0 km/h (0 Bft) NO 45 10 min 0,000 mm 297 W/m -5,7 C -2,6 C 3,2 km/h (1 Bft) 97 %
27.01.2017 10:50 -2,2 C -2,6 C -2,2 C 77 % 1023,1 hPa 0,0 l/m 0,0 km/h (0 Bft) NO 45 10 min 0,000 mm 290 W/m -5,7 C -2,2 C 4,8 km/h (1 Bft) 98 %
27.01.2017 11:00 -2,1 C -2,2 C -2,1 C 77 % 1023,1 hPa 0,0 l/m 0,0 km/h (0 Bft) NO 45 10 min 0,076 mm 265 W/m -5,6 C -2,1 C 3,2 km/h (1 Bft) 98 %
27.01.2017 11:10 -1,9 C -2,1 C -1,9 C 76 % 1023,1 hPa 0,0 l/m 0,0 km/h (0 Bft) NO 45 10 min 0,000 mm 341 W/m -5,6 C -1,9 C 3,2 km/h (1 Bft) 97 %
27.01.2017 11:20 -1,6 C -1,9 C -1,6 C 75 % 1023,2 hPa 0,0 l/m 0,0 km/h (0 Bft) NO 45 10 min 0,000 mm 336 W/m -5,4 C -1,6 C 3,2 km/h (1 Bft) 98 %
27.01.2017 11:30 -1,6 C -1,6 C -1,5 C 75 % 1023,2 hPa 0,0 l/m 0,0 km/h (0 Bft) NO 45 10 min 0,000 mm 258 W/m -5,4 C -1,6 C 4,8 km/h (1 Bft) 97 %
27.01.2017 11:40 -1,4 C -1,6 C -1,4 C 75 % 1023,0 hPa 0,0 l/m 1,6 km/h (1 Bft) NO 45 10 min 0,000 mm 257 W/m -5,2 C -1,4 C 6,4 km/h (2 Bft) 98 %
27.01.2017 11:50 -1,3 C -1,4 C -1,3 C 76 % 1023,0 hPa 0,0 l/m 0,0 km/h (0 Bft) NO 45 10 min 0,000 mm 316 W/m -5,0 C -1,3 C 4,8 km/h (1 Bft) 97 %
27.01.2017 12:00 -0,9 C -1,3 C -0,9 C 73 % 1023,0 hPa 0,0 l/m 0,0 km/h (0 Bft) NO 45 10 min 0,076 mm 334 W/m -5,1 C -0,9 C 1,6 km/h (1 Bft) 98 %
27.01.2017 12:10 -0,9 C -0,9 C -0,9 C 73 % 1023,0 hPa 0,0 l/m 0,0 km/h (0 Bft) NO 45 10 min 0,000 mm 257 W/m -5,1 C -0,9 C 1,6 km/h (1 Bft) 98 %
27.01.2017 12:20 -0,9 C -1,0 C -0,9 C 74 % 1022,8 hPa 0,0 l/m 1,6 km/h (1 Bft) NO 45 10 min 0,000 mm 304 W/m -4,9 C -0,9 C 6,4 km/h (2 Bft) 97 %
27.01.2017 12:30 -0,8 C -1,0 C -0,8 C 74 % 1022,7 hPa 0,0 l/m 1,6 km/h (1 Bft) NO 45 10 min 0,000 mm 311 W/m -4,8 C -0,8 C 6,4 km/h (2 Bft) 98 %
27.01.2017 12:40 -0,5 C -0,8 C -0,5 C 73 % 1022,7 hPa 0,0 l/m 0,0 km/h (0 Bft) NO 45 10 min 0,000 mm 362 W/m -4,7 C -0,5 C 4,8 km/h (1 Bft) 97 %
27.01.2017 12:50 -0,4 C -0,5 C -0,4 C 73 % 1022,7 hPa 0,0 l/m 0,0 km/h (0 Bft) N 0 10 min 0,000 mm 369 W/m -4,6 C -0,4 C 0,0 km/h (0 Bft) 98 %
27.01.2017 13:00 -0,1 C -0,4 C -0,1 C 72 % 1022,7 hPa 0,0 l/m 1,6 km/h (1 Bft) NO 45 10 min 0,102 mm 367 W/m -4,5 C -0,1 C 6,4 km/h (2 Bft) 97 %
27.01.2017 13:10 0,2 C -0,1 C 0,2 C 72 % 1022,5 hPa 0,0 l/m 0,0 km/h (0 Bft) NO 45 10 min 0,000 mm 381 W/m -4,2 C 0,2 C 4,8 km/h (1 Bft) 97 %
27.01.2017 13:20 0,3 C 0,2 C 0,3 C 71 % 1022,4 hPa 0,0 l/m 1,6 km/h (1 Bft) NO 45 10 min 0,000 mm 394 W/m -4,3 C 0,3 C 6,4 km/h (2 Bft) 97 %
27.01.2017 13:30 0,4 C 0,3 C 0,4 C 71 % 1022,1 hPa 0,0 l/m 0,0 km/h (0 Bft) NO 45 10 min 0,000 mm 376 W/m -4,2 C 0,4 C 4,8 km/h (1 Bft) 97 %
27.01.2017 13:40 0,4 C 0,4 C 0,4 C 71 % 1022,1 hPa 0,0 l/m 1,6 km/h (1 Bft) NO 45 10 min 0,000 mm 359 W/m -4,2 C 0,4 C 6,4 km/h (2 Bft) 98 %
27.01.2017 13:50 0,5 C 0,4 C 0,5 C 71 % 1022,0 hPa 0,0 l/m 0,0 km/h (0 Bft) NO 45 10 min 0,000 mm 355 W/m -4,1 C 0,5 C 1,6 km/h (1 Bft) 97 %
27.01.2017 14:00 0,7 C 0,5 C 0,7 C 71 % 1021,8 hPa 0,0 l/m 0,0 km/h (0 Bft) NO 45 10 min 0,102 mm 348 W/m -3,9 C 0,7 C 4,8 km/h (1 Bft) 98 %
27.01.2017 14:10 0,9 C 0,7 C 0,9 C 71 % 1021,8 hPa 0,0 l/m 0,0 km/h (0 Bft) NO 45 10 min 0,000 mm 297 W/m -3,7 C 0,9 C 6,4 km/h (2 Bft) 97 %
27.01.2017 14:20 0,9 C 0,8 C 0,9 C 71 % 1021,7 hPa 0,0 l/m 0,0 km/h (0 Bft) NO 45 10 min 0,000 mm 308 W/m -3,7 C 0,9 C 4,8 km/h (1 Bft) 98 %
27.01.2017 14:30 0,9 C 0,9 C 0,9 C 72 % 1021,7 hPa 0,0 l/m 0,0 km/h (0 Bft) N 0 10 min 0,000 mm 287 W/m -3,6 C 0,9 C 0,0 km/h (0 Bft) 97 %
27.01.2017 14:40 1,2 C 0,9 C 1,2 C 71 % 1021,7 hPa 0,0 l/m 0,0 km/h (0 Bft) N 0 10 min 0,000 mm 267 W/m -3,5 C 1,2 C 0,0 km/h (0 Bft) 88 %
27.01.2017 14:50 1,2 C 1,2 C 1,2 C 70 % 1021,6 hPa 0,0 l/m 0,0 km/h (0 Bft) NO 45 10 min 0,000 mm 250 W/m -3,7 C 1,2 C 6,4 km/h (2 Bft) 98 %
27.01.2017 15:00 1,1 C 1,1 C 1,2 C 71 % 1021,5 hPa 0,0 l/m 0,0 km/h (0 Bft) N 0 10 min 0,076 mm 202 W/m -3,6 C 1,1 C 0,0 km/h (0 Bft) 96 %
27.01.2017 15:10 0,9 C 0,9 C 1,1 C 71 % 1021,4 hPa 0,0 l/m 0,0 km/h (0 Bft) NO 45 10 min 0,000 mm 185 W/m -3,7 C 0,9 C 4,8 km/h (1 Bft) 97 %
27.01.2017 15:20 0,7 C 0,7 C 0,9 C 72 % 1021,4 hPa 0,0 l/m 0,0 km/h (0 Bft) NO 45 0 min 0,000 mm 72 W/m -3,8 C 0,7 C 4,8 km/h (1 Bft) 97 %
27.01.2017 15:30 0,7 C 0,7 C 0,7 C 73 % 1021,4 hPa 0,0 l/m 0,0 km/h (0 Bft) NO 45 0 min 0,000 mm 56 W/m -3,6 C 0,7 C 1,6 km/h (1 Bft) 98 %
27.01.2017 15:40 0,8 C 0,7 C 0,8 C 72 % 1021,3 hPa 0,0 l/m 0,0 km/h (0 Bft) NO 45 0 min 0,000 mm 53 W/m -3,7 C 0,8 C 3,2 km/h (1 Bft) 98 %
27.01.2017 15:50 0,8 C 0,8 C 0,8 C 72 % 1021,3 hPa 0,0 l/m 0,0 km/h (0 Bft) NO 45 0 min 0,000 mm 46 W/m -3,7 C 0,8 C 4,8 km/h (1 Bft) 97 %
27.01.2017 16:00 0,7 C 0,7 C 0,8 C 72 % 1021,3 hPa 0,0 l/m 0,0 km/h (0 Bft) NO 45 0 min 0,025 mm 42 W/m -3,8 C 0,7 C 3,2 km/h (1 Bft) 98 %
27.01.2017 16:10 0,6 C 0,6 C 0,7 C 72 % 1021,3 hPa 0,0 l/m 0,0 km/h (0 Bft) NO 45 0 min 0,000 mm 39 W/m -3,9 C 0,6 C 4,8 km/h (1 Bft) 97 %
27.01.2017 16:20 0,4 C 0,4 C 0,6 C 72 % 1021,2 hPa 0,0 l/m 0,0 km/h (0 Bft) N 0 0 min 0,000 mm 32 W/m -4,0 C 0,4 C 0,0 km/h (0 Bft) 100 %
27.01.2017 16:30 0,2 C 0,2 C 0,4 C 73 % 1021,2 hPa 0,0 l/m 0,0 km/h (0 Bft) NO 45 0 min 0,000 mm 26 W/m -4,1 C 0,2 C 4,8 km/h (1 Bft) 89 %
27.01.2017 16:40 -0,2 C -0,2 C 0,1 C 73 % 1021,0 hPa 0,0 l/m 0,0 km/h (0 Bft) NO 45 0 min 0,000 mm 16 W/m -4,4 C -0,2 C 3,2 km/h (1 Bft) 100 %
27.01.2017 17:00 -0,6 C -0,6 C 0,1 C 75 % 1021,0 hPa 0,0 l/m 0,1 km/h (0 Bft) N-NO 30 0 min 0,000 mm 0 W/m -4,5 C -0,6 C 3,2 km/h (1 Bft) 100 %
27.01.2017 17:10 -0,9 C -0,9 C -0,6 C 75 % 1021,1 hPa 0,0 l/m 0,0 km/h (0 Bft) N-NO 30 0 min 0,000 mm 0 W/m -4,8 C -0,9 C 3,2 km/h (1 Bft) 100 %
27.01.2017 17:20 -1,1 C -1,1 C -0,9 C 76 % 1021,1 hPa 0,0 l/m 0,0 km/h (0 Bft) N-NO 30 0 min 0,000 mm 0 W/m -4,8 C -1,1 C 0,0 km/h (0 Bft) 96 %
27.01.2017 17:30 -1,3 C -1,3 C -1,1 C 76 % 1021,2 hPa 0,0 l/m 0,0 km/h (0 Bft) N-NO 29 0 min 0,000 mm 0 W/m -5,0 C -1,3 C 1,6 km/h (1 Bft) 95 %
27.01.2017 17:40 -1,4 C -1,5 C -1,3 C 77 % 1021,2 hPa 0,0 l/m 1,7 km/h (1 Bft) NO 49 0 min 0,000 mm 0 W/m -4,9 C -1,4 C 6,4 km/h (2 Bft) 100 %
27.01.2017 17:50 -1,2 C -1,4 C -1,2 C 76 % 1021,2 hPa 0,0 l/m 4,3 km/h (1 Bft) NO 41 0 min 0,000 mm 0 W/m -4,9 C -1,2 C 8,0 km/h (2 Bft) 99 %
27.01.2017 18:00 -1,1 C -1,2 C -1,0 C 75 % 1021,3 hPa 0,0 l/m 4,8 km/h (1 Bft) NO 40 0 min 0,000 mm 0 W/m -5,0 C -1,1 C 6,4 km/h (2 Bft) 99 %
27.01.2017 18:10 -1,1 C -1,1 C -1,0 C 75 % 1021,2 hPa 0,0 l/m 4,5 km/h (1 Bft) NO 38 0 min 0,000 mm 0 W/m -5,0 C -1,1 C 6,4 km/h (2 Bft) 100 %
27.01.2017 18:20 -1,4 C -1,4 C -1,1 C 75 % 1021,2 hPa 0,0 l/m 2,8 km/h (1 Bft) NO 38 0 min 0,000 mm 0 W/m -5,2 C -1,4 C 6,4 km/h (2 Bft) 100 %
27.01.2017 18:30 -1,6 C -1,6 C -1,4 C 76 % 1021,2 hPa 0,0 l/m 1,8 km/h (1 Bft) NO 38 0 min 0,000 mm 0 W/m -5,3 C -1,6 C 4,8 km/h (1 Bft) 100 %
27.01.2017 18:40 -1,7 C -1,7 C -1,6 C 76 % 1021,1 hPa 0,0 l/m 1,3 km/h (1 Bft) NO 38 0 min 0,000 mm 0 W/m -5,4 C -1,7 C 4,8 km/h (1 Bft) 91 %
27.01.2017 18:50 -1,8 C -1,8 C -1,7 C 76 % 1021,1 hPa 0,0 l/m 0,0 km/h (0 Bft) NO 38 0 min 0,000 mm 0 W/m -5,5 C -1,8 C 0,0 km/h (0 Bft) 100 %
27.01.2017 19:00 -1,9 C -1,9 C -1,7 C 76 % 1021,0 hPa 0,0 l/m 0,3 km/h (0 Bft) NO 38 0 min 0,000 mm 0 W/m -5,6 C -1,9 C 4,8 km/h (1 Bft) 100 %
27.01.2017 19:10 -1,9 C -2,0 C -1,9 C 77 % 1021,1 hPa 0,0 l/m 3,8 km/h (1 Bft) NO 38 0 min 0,000 mm 0 W/m -5,4 C -1,9 C 6,4 km/h (2 Bft) 92 %
27.01.2017 19:20 -2,1 C -2,1 C -1,9 C 76 % 1021,1 hPa 0,0 l/m 0,5 km/h (0 Bft) NO 38 0 min 0,000 mm 0 W/m -5,7 C -2,1 C 6,4 km/h (2 Bft) 100 %
27.01.2017 19:30 -2,2 C -2,2 C -2,1 C 76 % 1021,1 hPa 0,0 l/m 0,0 km/h (0 Bft) NO 37 0 min 0,000 mm 0 W/m -5,8 C -2,2 C 0,0 km/h (0 Bft) 100 %
27.01.2017 19:40 -2,4 C -2,4 C -2,2 C 77 % 1021,1 hPa 0,0 l/m 0,0 km/h (0 Bft) NO 37 0 min 0,000 mm 0 W/m -5,9 C -2,4 C 0,0 km/h (0 Bft) 100 %
27.01.2017 19:50 -2,6 C -2,6 C -2,4 C 77 % 1021,2 hPa 0,0 l/m 0,0 km/h (0 Bft) NO 37 0 min 0,000 mm 0 W/m -6,1 C -2,6 C 0,0 km/h (0 Bft) 91 %
27.01.2017 20:00 -2,7 C -2,7 C -2,6 C 77 % 1021,3 hPa 0,0 l/m 0,1 km/h (0 Bft) NO 37 0 min 0,000 mm 0 W/m -6,2 C -2,7 C 3,2 km/h (1 Bft) 100 %
27.01.2017 20:10 -2,7 C -2,7 C -2,7 C 78 % 1021,3 hPa 0,0 l/m 1,2 km/h (1 Bft) NO 37 0 min 0,000 mm 0 W/m -6,0 C -2,7 C 4,8 km/h (1 Bft) 100 %
27.01.2017 20:20 -2,7 C -2,8 C -2,7 C 79 % 1021,2 hPa 0,0 l/m 3,7 km/h (1 Bft) NO 37 0 min 0,000 mm 0 W/m -5,8 C -2,7 C 6,4 km/h (2 Bft) 100 %
27.01.2017 20:30 -2,8 C -2,8 C -2,7 C 78 % 1021,2 hPa 0,0 l/m 2,5 km/h (1 Bft) NO 37 0 min 0,000 mm 0 W/m -6,1 C -2,8 C 6,4 km/h (2 Bft) 100 %
27.01.2017 20:40 -2,7 C -2,8 C -2,7 C 79 % 1021,2 hPa 0,0 l/m 3,7 km/h (1 Bft) NO 37 0 min 0,000 mm 0 W/m -5,8 C -2,7 C 6,4 km/h (2 Bft) 100 %
27.01.2017 20:50 -2,7 C -2,8 C -2,7 C 79 % 1021,1 hPa 0,0 l/m 4,6 km/h (1 Bft) NO 37 0 min 0,000 mm 0 W/m -5,8 C -2,7 C 6,4 km/h (2 Bft) 100 %
27.01.2017 21:00 -2,6 C -2,7 C -2,5 C 78 % 1021,2 hPa 0,0 l/m 4,5 km/h (1 Bft) NO 37 0 min 0,000 mm 0 W/m -5,9 C -2,6 C 6,4 km/h (2 Bft) 100 %
27.01.2017 21:10 -2,6 C -2,6 C -2,5 C 78 % 1021,1 hPa 0,0 l/m 4,8 km/h (1 Bft) NO 45 0 min 0,000 mm 0 W/m -5,9 C -2,6 C 6,4 km/h (2 Bft) 97 %
27.01.2017 21:20 -2,6 C -2,6 C -2,6 C 79 % 1021,1 hPa 0,0 l/m 6,4 km/h (2 Bft) NO 45 0 min 0,000 mm 0 W/m -5,7 C -2,6 C 8,0 km/h (2 Bft) 88 %
27.01.2017 21:30 -2,4 C -2,6 C -2,4 C 78 % 1021,0 hPa 0,0 l/m 6,4 km/h (2 Bft) NO 45 0 min 0,000 mm 0 W/m -5,7 C -2,4 C 8,0 km/h (2 Bft) 97 %
27.01.2017 21:40 -2,3 C -2,4 C -2,3 C 78 % 1021,1 hPa 0,0 l/m 1,6 km/h (1 Bft) NO 45 0 min 0,000 mm 0 W/m -5,6 C -2,3 C 6,4 km/h (2 Bft) 97 %
27.01.2017 21:50 -2,4 C -2,4 C -2,3 C 78 % 1021,0 hPa 0,0 l/m 3,2 km/h (1 Bft) NO 45 0 min 0,000 mm 0 W/m -5,7 C -2,4 C 6,4 km/h (2 Bft) 98 %
27.01.2017 22:00 -2,6 C -2,6 C -2,4 C 78 % 1020,8 hPa 0,0 l/m 1,6 km/h (1 Bft) N-NO 22 0 min 0,000 mm 0 W/m -5,9 C -2,6 C 4,8 km/h (1 Bft) 97 %
27.01.2017 22:10 -2,7 C -2,7 C -2,6 C 78 % 1020,9 hPa 0,0 l/m 1,6 km/h (1 Bft) N-NO 22 0 min 0,000 mm 0 W/m -6,0 C -2,7 C 4,8 km/h (1 Bft) 98 %
27.01.2017 22:20 -3,2 C -3,2 C -2,7 C 78 % 1020,8 hPa 0,0 l/m 0,0 km/h (0 Bft) N-NO 22 0 min 0,000 mm 0 W/m -6,5 C -3,2 C 6,4 km/h (2 Bft) 97 %
27.01.2017 22:30 -3,5 C -3,5 C -3,2 C 80 % 1020,8 hPa 0,0 l/m 0,0 km/h (0 Bft) N 0 0 min 0,000 mm 0 W/m -6,4 C -3,5 C 0,0 km/h (0 Bft) 89 %
27.01.2017 22:40 -3,7 C -3,7 C -3,5 C 80 % 1020,8 hPa 0,0 l/m 0,0 km/h (0 Bft) N 0 0 min 0,000 mm 0 W/m -6,6 C -3,7 C 0,0 km/h (0 Bft) 98 %
27.01.2017 22:50 -3,9 C -3,9 C -3,7 C 80 % 1020,6 hPa 0,0 l/m 0,0 km/h (0 Bft) N-NO 22 0 min 0,000 mm 0 W/m -6,8 C -3,9 C 4,8 km/h (1 Bft) 98 %
27.01.2017 23:00 -4,0 C -4,0 C -3,8 C 80 % 1020,7 hPa 0,0 l/m 0,0 km/h (0 Bft) N 0 0 min 0,000 mm 0 W/m -6,9 C -4,0 C 0,0 km/h (0 Bft) 96 %
27.01.2017 23:10 -3,9 C -4,1 C -3,9 C 81 % 1020,7 hPa 0,0 l/m 1,6 km/h (1 Bft) N-NO 22 0 min 0,000 mm 0 W/m -6,7 C -3,9 C 6,4 km/h (2 Bft) 97 %
27.01.2017 23:20 -3,7 C -3,9 C -3,7 C 81 % 1020,7 hPa 0,0 l/m 1,6 km/h (1 Bft) N-NO 22 0 min 0,000 mm 0 W/m -6,5 C -3,7 C 6,4 km/h (2 Bft) 97 %
27.01.2017 23:30 -3,6 C -3,7 C -3,6 C 80 % 1020,8 hPa 0,0 l/m 0,0 km/h (0 Bft) N-NO 22 0 min 0,000 mm 0 W/m -6,5 C -3,6 C 3,2 km/h (1 Bft) 86 %
27.01.2017 23:40 -3,8 C -3,8 C -3,6 C 79 % 1020,8 hPa 0,0 l/m 0,0 km/h (0 Bft) N-NO 22 0 min 0,000 mm 0 W/m -6,9 C -3,8 C 3,2 km/h (1 Bft) 98 %
27.01.2017 23:50 -4,1 C -4,1 C -3,8 C 80 % 1020,7 hPa 0,0 l/m 0,0 km/h (0 Bft) N-NO 22 0 min 0,000 mm 0 W/m -7,0 C -4,1 C 3,2 km/h (1 Bft) 98 %
_ Min-Zeit 08:00 08:00 08:00 14:50 22:50 - 00:00 - - - - - 07:50 08:00 04:00 23:30
Minimum _ -8,9 C -8,9 C -8,8 C 70 % 1020,6 hPa - 0,0 km/h (0 Bft) - - - - - -10,3 C -8,9 C 0,0 km/h (0 Bft) 86 %
_ Max-Zeit 14:40 14:50 14:40 08:20 11:20 00:00 21:20 - - 09:30 13:00 13:20 14:40 14:40 00:30 00:00
Maximum _ 1,2 C 1,2 C 1,2 C 91 % 1023,2 hPa 0,0 l/m 6,4 km/h
NO (2 Bft)
- - 10 min 0,102 mm 394 W/m -3,5 C 1,2 C 9,7 km/h
NO (2 Bft)
100 %
Durchschnitt _ -3,8 C -3,9 C -3,6 C 80 % 1021,9 hPa #0,0 l/m 0,8 km/h (0 Bft) NO - #5:50 h #0,508 mm 207 W/m -6,7 C -3,8 C 3,9 km/h (1 Bft) 98 %
PRIVATE WETTERSTATION BILLIGHEIM-ALLFELD - www.neckar-odenwald-wetter.de - Holger Sonntag